sensor_id;sensor_type;location;lat;lon;timestamp;P1;durP1;ratioP1;P2;durP2;ratioP2
23614;SDS011;11985;49.404;7.734;2022-08-19T00:00:37;29.92;;;24.20;;
23614;SDS011;11985;49.404;7.734;2022-08-19T00:02:39;27.33;;;24.13;;
23614;SDS011;11985;49.404;7.734;2022-08-19T00:04:42;33.20;;;24.80;;
23614;SDS011;11985;49.404;7.734;2022-08-19T00:06:47;29.25;;;24.15;;
23614;SDS011;11985;49.404;7.734;2022-08-19T00:08:49;27.52;;;24.45;;
23614;SDS011;11985;49.404;7.734;2022-08-19T00:10:51;28.70;;;23.48;;
23614;SDS011;11985;49.404;7.734;2022-08-19T00:14:54;29.02;;;25.58;;
23614;SDS011;11985;49.404;7.734;2022-08-19T00:16:56;27.65;;;23.63;;
23614;SDS011;11985;49.404;7.734;2022-08-19T00:18:58;29.10;;;24.48;;
23614;SDS011;11985;49.404;7.734;2022-08-19T00:21:00;28.88;;;24.05;;
23614;SDS011;11985;49.404;7.734;2022-08-19T00:23:03;31.02;;;24.60;;
23614;SDS011;11985;49.404;7.734;2022-08-19T00:25:05;34.17;;;24.73;;
23614;SDS011;11985;49.404;7.734;2022-08-19T00:27:07;28.80;;;24.75;;
23614;SDS011;11985;49.404;7.734;2022-08-19T00:29:10;28.52;;;25.00;;
23614;SDS011;11985;49.404;7.734;2022-08-19T00:31:13;26.42;;;23.65;;
23614;SDS011;11985;49.404;7.734;2022-08-19T00:33:16;30.50;;;24.58;;
23614;SDS011;11985;49.404;7.734;2022-08-19T00:35:17;27.42;;;23.30;;
23614;SDS011;11985;49.404;7.734;2022-08-19T00:37:19;27.52;;;23.85;;
23614;SDS011;11985;49.404;7.734;2022-08-19T00:39:24;26.90;;;24.00;;
23614;SDS011;11985;49.404;7.734;2022-08-19T00:41:26;28.17;;;23.25;;
23614;SDS011;11985;49.404;7.734;2022-08-19T00:43:28;31.25;;;24.15;;
23614;SDS011;11985;49.404;7.734;2022-08-19T00:47:32;28.60;;;23.70;;
23614;SDS011;11985;49.404;7.734;2022-08-19T00:49:34;32.65;;;24.17;;
23614;SDS011;11985;49.404;7.734;2022-08-19T00:51:41;31.42;;;24.83;;
23614;SDS011;11985;49.404;7.734;2022-08-19T00:53:45;29.30;;;24.15;;
23614;SDS011;11985;49.404;7.734;2022-08-19T00:57:53;26.75;;;23.60;;
23614;SDS011;11985;49.404;7.734;2022-08-19T00:59:57;29.08;;;24.02;;
23614;SDS011;11985;49.404;7.734;2022-08-19T01:02:00;31.45;;;23.95;;
23614;SDS011;11985;49.404;7.734;2022-08-19T01:04:02;30.67;;;25.35;;
23614;SDS011;11985;49.404;7.734;2022-08-19T01:08:06;28.70;;;23.73;;
23614;SDS011;11985;49.404;7.734;2022-08-19T01:10:10;27.15;;;23.50;;
23614;SDS011;11985;49.404;7.734;2022-08-19T01:12:17;28.40;;;25.30;;
23614;SDS011;11985;49.404;7.734;2022-08-19T01:14:19;30.60;;;24.20;;
23614;SDS011;11985;49.404;7.734;2022-08-19T01:16:21;27.20;;;23.95;;
23614;SDS011;11985;49.404;7.734;2022-08-19T01:18:25;31.70;;;24.58;;
23614;SDS011;11985;49.404;7.734;2022-08-19T01:20:28;30.63;;;24.38;;
23614;SDS011;11985;49.404;7.734;2022-08-19T01:22:31;31.08;;;25.40;;
23614;SDS011;11985;49.404;7.734;2022-08-19T01:24:38;29.10;;;25.90;;
23614;SDS011;11985;49.404;7.734;2022-08-19T01:26:41;30.85;;;26.05;;
23614;SDS011;11985;49.404;7.734;2022-08-19T01:28:44;30.35;;;25.55;;
23614;SDS011;11985;49.404;7.734;2022-08-19T01:30:48;32.78;;;27.48;;
23614;SDS011;11985;49.404;7.734;2022-08-19T01:32:50;25.73;;;22.92;;
23614;SDS011;11985;49.404;7.734;2022-08-19T01:34:53;26.33;;;23.35;;
23614;SDS011;11985;49.404;7.734;2022-08-19T01:36:54;28.50;;;22.98;;
23614;SDS011;11985;49.404;7.734;2022-08-19T01:38:57;26.52;;;22.55;;
23614;SDS011;11985;49.404;7.734;2022-08-19T01:41:00;26.27;;;22.40;;
23614;SDS011;11985;49.404;7.734;2022-08-19T01:43:02;25.40;;;22.25;;
23614;SDS011;11985;49.404;7.734;2022-08-19T01:45:06;29.30;;;23.88;;
23614;SDS011;11985;49.404;7.734;2022-08-19T01:47:08;25.40;;;22.55;;
23614;SDS011;11985;49.404;7.734;2022-08-19T01:49:10;26.55;;;23.58;;
23614;SDS011;11985;49.404;7.734;2022-08-19T01:55:27;28.55;;;23.73;;
23614;SDS011;11985;49.404;7.734;2022-08-19T01:57:29;26.70;;;22.92;;
23614;SDS011;11985;49.404;7.734;2022-08-19T01:59:30;26.83;;;24.00;;
23614;SDS011;11985;49.404;7.734;2022-08-19T02:01:33;30.52;;;24.63;;
23614;SDS011;11985;49.404;7.734;2022-08-19T02:03:35;28.17;;;24.02;;
23614;SDS011;11985;49.404;7.734;2022-08-19T02:05:37;33.15;;;22.80;;
23614;SDS011;11985;49.404;7.734;2022-08-19T02:07:41;29.70;;;22.33;;
23614;SDS011;11985;49.404;7.734;2022-08-19T02:09:44;26.50;;;22.73;;
23614;SDS011;11985;49.404;7.734;2022-08-19T02:11:48;29.20;;;23.33;;
23614;SDS011;11985;49.404;7.734;2022-08-19T02:13:50;29.30;;;23.15;;
23614;SDS011;11985;49.404;7.734;2022-08-19T02:15:52;27.08;;;23.33;;
23614;SDS011;11985;49.404;7.734;2022-08-19T02:17:54;26.95;;;23.63;;
23614;SDS011;11985;49.404;7.734;2022-08-19T02:19:55;26.27;;;22.48;;
23614;SDS011;11985;49.404;7.734;2022-08-19T02:21:57;23.65;;;21.05;;
23614;SDS011;11985;49.404;7.734;2022-08-19T02:23:59;27.13;;;22.77;;
23614;SDS011;11985;49.404;7.734;2022-08-19T02:26:01;25.73;;;22.52;;
23614;SDS011;11985;49.404;7.734;2022-08-19T02:28:05;24.88;;;22.25;;
23614;SDS011;11985;49.404;7.734;2022-08-19T02:30:08;24.13;;;21.52;;
23614;SDS011;11985;49.404;7.734;2022-08-19T02:32:13;24.13;;;21.48;;
23614;SDS011;11985;49.404;7.734;2022-08-19T02:34:14;26.02;;;23.23;;
23614;SDS011;11985;49.404;7.734;2022-08-19T02:38:17;39.42;;;22.38;;
23614;SDS011;11985;49.404;7.734;2022-08-19T02:40:27;25.35;;;21.33;;
23614;SDS011;11985;49.404;7.734;2022-08-19T02:42:29;25.58;;;21.90;;
23614;SDS011;11985;49.404;7.734;2022-08-19T02:44:32;25.85;;;20.88;;
23614;SDS011;11985;49.404;7.734;2022-08-19T02:46:34;24.05;;;20.77;;
23614;SDS011;11985;49.404;7.734;2022-08-19T02:48:36;24.65;;;21.92;;
23614;SDS011;11985;49.404;7.734;2022-08-19T02:50:38;23.38;;;19.65;;
23614;SDS011;11985;49.404;7.734;2022-08-19T02:52:40;25.23;;;21.17;;
23614;SDS011;11985;49.404;7.734;2022-08-19T02:54:42;23.30;;;20.77;;
23614;SDS011;11985;49.404;7.734;2022-08-19T02:56:44;23.27;;;19.58;;
23614;SDS011;11985;49.404;7.734;2022-08-19T02:58:46;23.48;;;20.33;;
23614;SDS011;11985;49.404;7.734;2022-08-19T03:00:50;22.95;;;19.30;;
23614;SDS011;11985;49.404;7.734;2022-08-19T03:02:55;23.13;;;19.98;;
23614;SDS011;11985;49.404;7.734;2022-08-19T03:04:57;25.17;;;20.45;;
23614;SDS011;11985;49.404;7.734;2022-08-19T03:06:58;24.10;;;20.33;;
23614;SDS011;11985;49.404;7.734;2022-08-19T03:09:00;25.50;;;20.67;;
23614;SDS011;11985;49.404;7.734;2022-08-19T03:11:01;22.83;;;19.60;;
23614;SDS011;11985;49.404;7.734;2022-08-19T03:13:04;22.50;;;20.17;;
23614;SDS011;11985;49.404;7.734;2022-08-19T03:15:06;21.27;;;19.08;;
23614;SDS011;11985;49.404;7.734;2022-08-19T03:17:10;25.00;;;19.42;;
23614;SDS011;11985;49.404;7.734;2022-08-19T03:19:13;26.15;;;19.52;;
23614;SDS011;11985;49.404;7.734;2022-08-19T03:21:16;22.52;;;19.50;;
23614;SDS011;11985;49.404;7.734;2022-08-19T03:23:19;22.02;;;18.48;;
23614;SDS011;11985;49.404;7.734;2022-08-19T03:25:21;23.27;;;19.13;;
23614;SDS011;11985;49.404;7.734;2022-08-19T03:27:22;26.02;;;19.50;;
23614;SDS011;11985;49.404;7.734;2022-08-19T03:29:25;24.15;;;20.27;;
23614;SDS011;11985;49.404;7.734;2022-08-19T03:31:28;23.70;;;19.73;;
23614;SDS011;11985;49.404;7.734;2022-08-19T03:33:32;25.85;;;19.02;;
23614;SDS011;11985;49.404;7.734;2022-08-19T03:35:35;24.65;;;19.88;;
23614;SDS011;11985;49.404;7.734;2022-08-19T03:37:37;22.45;;;18.52;;
23614;SDS011;11985;49.404;7.734;2022-08-19T03:39:39;22.75;;;19.38;;
23614;SDS011;11985;49.404;7.734;2022-08-19T03:41:43;23.85;;;19.10;;
23614;SDS011;11985;49.404;7.734;2022-08-19T03:43:45;24.85;;;19.58;;
23614;SDS011;11985;49.404;7.734;2022-08-19T03:45:48;22.42;;;19.95;;
23614;SDS011;11985;49.404;7.734;2022-08-19T03:47:51;21.70;;;18.05;;
23614;SDS011;11985;49.404;7.734;2022-08-19T03:49:54;25.45;;;18.42;;
23614;SDS011;11985;49.404;7.734;2022-08-19T03:51:56;20.65;;;18.20;;
23614;SDS011;11985;49.404;7.734;2022-08-19T03:54:01;19.77;;;17.30;;
23614;SDS011;11985;49.404;7.734;2022-08-19T03:56:05;20.90;;;16.63;;
23614;SDS011;11985;49.404;7.734;2022-08-19T03:58:10;18.10;;;15.88;;
23614;SDS011;11985;49.404;7.734;2022-08-19T04:00:12;20.05;;;17.15;;
23614;SDS011;11985;49.404;7.734;2022-08-19T04:02:14;20.00;;;16.70;;
23614;SDS011;11985;49.404;7.734;2022-08-19T04:04:16;20.27;;;17.52;;
23614;SDS011;11985;49.404;7.734;2022-08-19T04:06:20;22.50;;;16.75;;
23614;SDS011;11985;49.404;7.734;2022-08-19T04:08:23;20.85;;;16.38;;
23614;SDS011;11985;49.404;7.734;2022-08-19T04:10:25;19.00;;;16.63;;
23614;SDS011;11985;49.404;7.734;2022-08-19T04:12:26;19.30;;;16.65;;
23614;SDS011;11985;49.404;7.734;2022-08-19T04:14:28;19.27;;;15.93;;
23614;SDS011;11985;49.404;7.734;2022-08-19T04:16:31;21.45;;;18.70;;
23614;SDS011;11985;49.404;7.734;2022-08-19T04:18:33;29.27;;;17.58;;
23614;SDS011;11985;49.404;7.734;2022-08-19T04:22:41;19.58;;;16.98;;
23614;SDS011;11985;49.404;7.734;2022-08-19T04:24:42;20.83;;;18.02;;
23614;SDS011;11985;49.404;7.734;2022-08-19T04:28:46;20.60;;;16.85;;
23614;SDS011;11985;49.404;7.734;2022-08-19T04:30:49;29.55;;;17.27;;
23614;SDS011;11985;49.404;7.734;2022-08-19T04:32:52;21.38;;;17.50;;
23614;SDS011;11985;49.404;7.734;2022-08-19T04:34:53;19.58;;;16.77;;
23614;SDS011;11985;49.404;7.734;2022-08-19T04:36:57;20.98;;;16.90;;
23614;SDS011;11985;49.404;7.734;2022-08-19T04:39:02;24.48;;;16.63;;
23614;SDS011;11985;49.404;7.734;2022-08-19T04:41:06;20.55;;;15.32;;
23614;SDS011;11985;49.404;7.734;2022-08-19T04:43:26;18.45;;;15.60;;
23614;SDS011;11985;49.404;7.734;2022-08-19T04:45:27;21.17;;;15.95;;
23614;SDS011;11985;49.404;7.734;2022-08-19T04:47:29;16.95;;;14.80;;
23614;SDS011;11985;49.404;7.734;2022-08-19T04:49:32;17.88;;;14.77;;
23614;SDS011;11985;49.404;7.734;2022-08-19T04:51:34;18.55;;;16.00;;
23614;SDS011;11985;49.404;7.734;2022-08-19T04:53:37;24.23;;;15.77;;
23614;SDS011;11985;49.404;7.734;2022-08-19T04:55:41;22.75;;;16.13;;
23614;SDS011;11985;49.404;7.734;2022-08-19T04:57:43;19.95;;;15.52;;
23614;SDS011;11985;49.404;7.734;2022-08-19T04:59:45;24.33;;;16.75;;
23614;SDS011;11985;49.404;7.734;2022-08-19T05:01:47;18.92;;;15.77;;
23614;SDS011;11985;49.404;7.734;2022-08-19T05:03:50;20.13;;;15.05;;
23614;SDS011;11985;49.404;7.734;2022-08-19T05:05:52;19.48;;;15.05;;
23614;SDS011;11985;49.404;7.734;2022-08-19T05:07:53;17.05;;;14.93;;
23614;SDS011;11985;49.404;7.734;2022-08-19T05:09:55;18.27;;;15.25;;
23614;SDS011;11985;49.404;7.734;2022-08-19T05:11:58;17.40;;;14.50;;
23614;SDS011;11985;49.404;7.734;2022-08-19T05:14:00;15.80;;;14.10;;
23614;SDS011;11985;49.404;7.734;2022-08-19T05:16:02;19.30;;;15.02;;
23614;SDS011;11985;49.404;7.734;2022-08-19T05:18:05;16.85;;;13.95;;
23614;SDS011;11985;49.404;7.734;2022-08-19T05:20:24;16.70;;;14.88;;
23614;SDS011;11985;49.404;7.734;2022-08-19T05:22:43;18.02;;;15.27;;
23614;SDS011;11985;49.404;7.734;2022-08-19T05:24:45;15.73;;;14.00;;
23614;SDS011;11985;49.404;7.734;2022-08-19T05:26:48;21.08;;;14.85;;
23614;SDS011;11985;49.404;7.734;2022-08-19T05:28:52;18.83;;;14.40;;
23614;SDS011;11985;49.404;7.734;2022-08-19T05:30:54;18.40;;;14.68;;
23614;SDS011;11985;49.404;7.734;2022-08-19T05:32:56;27.58;;;18.65;;
23614;SDS011;11985;49.404;7.734;2022-08-19T05:34:57;17.63;;;15.68;;
23614;SDS011;11985;49.404;7.734;2022-08-19T05:36:59;20.58;;;17.10;;
23614;SDS011;11985;49.404;7.734;2022-08-19T05:39:04;20.80;;;16.95;;
23614;SDS011;11985;49.404;7.734;2022-08-19T05:41:07;21.25;;;17.58;;
23614;SDS011;11985;49.404;7.734;2022-08-19T05:43:09;18.00;;;15.48;;
23614;SDS011;11985;49.404;7.734;2022-08-19T05:45:12;20.05;;;16.80;;
23614;SDS011;11985;49.404;7.734;2022-08-19T05:47:15;24.92;;;16.67;;
23614;SDS011;11985;49.404;7.734;2022-08-19T05:49:19;21.42;;;15.15;;
23614;SDS011;11985;49.404;7.734;2022-08-19T05:51:22;18.77;;;15.68;;
23614;SDS011;11985;49.404;7.734;2022-08-19T05:53:24;25.48;;;16.83;;
23614;SDS011;11985;49.404;7.734;2022-08-19T05:55:26;21.90;;;16.40;;
23614;SDS011;11985;49.404;7.734;2022-08-19T05:57:28;17.52;;;15.57;;
23614;SDS011;11985;49.404;7.734;2022-08-19T05:59:29;22.83;;;14.55;;
23614;SDS011;11985;49.404;7.734;2022-08-19T06:01:32;19.25;;;13.15;;
23614;SDS011;11985;49.404;7.734;2022-08-19T06:03:35;19.80;;;15.40;;
23614;SDS011;11985;49.404;7.734;2022-08-19T06:05:37;16.88;;;14.88;;
23614;SDS011;11985;49.404;7.734;2022-08-19T06:09:40;19.45;;;13.70;;
23614;SDS011;11985;49.404;7.734;2022-08-19T06:11:44;17.27;;;13.30;;
23614;SDS011;11985;49.404;7.734;2022-08-19T06:13:48;16.73;;;13.93;;
23614;SDS011;11985;49.404;7.734;2022-08-19T06:15:52;16.55;;;13.38;;
23614;SDS011;11985;49.404;7.734;2022-08-19T06:17:55;23.17;;;13.45;;
23614;SDS011;11985;49.404;7.734;2022-08-19T06:19:57;14.68;;;12.93;;
23614;SDS011;11985;49.404;7.734;2022-08-19T06:21:59;17.33;;;14.00;;
23614;SDS011;11985;49.404;7.734;2022-08-19T06:24:01;16.80;;;13.43;;
23614;SDS011;11985;49.404;7.734;2022-08-19T06:26:03;18.15;;;14.13;;
23614;SDS011;11985;49.404;7.734;2022-08-19T06:30:07;16.23;;;12.95;;
23614;SDS011;11985;49.404;7.734;2022-08-19T06:32:10;18.30;;;13.20;;
23614;SDS011;11985;49.404;7.734;2022-08-19T06:34:13;14.93;;;12.75;;
23614;SDS011;11985;49.404;7.734;2022-08-19T06:36:18;17.58;;;12.40;;
23614;SDS011;11985;49.404;7.734;2022-08-19T06:38:21;14.02;;;12.00;;
23614;SDS011;11985;49.404;7.734;2022-08-19T06:40:23;20.23;;;12.80;;
23614;SDS011;11985;49.404;7.734;2022-08-19T06:42:27;18.25;;;12.68;;
23614;SDS011;11985;49.404;7.734;2022-08-19T06:44:29;15.13;;;11.77;;
23614;SDS011;11985;49.404;7.734;2022-08-19T06:46:36;15.82;;;11.70;;
23614;SDS011;11985;49.404;7.734;2022-08-19T06:48:39;18.10;;;11.90;;
23614;SDS011;11985;49.404;7.734;2022-08-19T06:50:42;17.35;;;12.88;;
23614;SDS011;11985;49.404;7.734;2022-08-19T06:52:43;16.20;;;12.73;;
23614;SDS011;11985;49.404;7.734;2022-08-19T06:54:45;14.30;;;11.48;;
23614;SDS011;11985;49.404;7.734;2022-08-19T06:56:46;25.38;;;11.55;;
23614;SDS011;11985;49.404;7.734;2022-08-19T06:58:48;36.45;;;12.05;;
23614;SDS011;11985;49.404;7.734;2022-08-19T07:00:52;15.50;;;12.15;;
23614;SDS011;11985;49.404;7.734;2022-08-19T07:03:03;14.63;;;10.88;;
23614;SDS011;11985;49.404;7.734;2022-08-19T07:05:17;15.50;;;11.55;;
23614;SDS011;11985;49.404;7.734;2022-08-19T07:07:20;14.18;;;12.32;;
23614;SDS011;11985;49.404;7.734;2022-08-19T07:09:22;16.08;;;11.00;;
23614;SDS011;11985;49.404;7.734;2022-08-19T07:11:24;19.38;;;13.63;;
23614;SDS011;11985;49.404;7.734;2022-08-19T07:13:27;17.90;;;12.32;;
23614;SDS011;11985;49.404;7.734;2022-08-19T07:17:31;16.95;;;11.88;;
23614;SDS011;11985;49.404;7.734;2022-08-19T07:19:35;14.77;;;12.90;;
23614;SDS011;11985;49.404;7.734;2022-08-19T07:21:40;16.48;;;11.30;;
23614;SDS011;11985;49.404;7.734;2022-08-19T07:23:44;20.20;;;13.95;;
23614;SDS011;11985;49.404;7.734;2022-08-19T07:25:46;16.17;;;13.73;;
23614;SDS011;11985;49.404;7.734;2022-08-19T07:27:48;15.30;;;12.75;;
23614;SDS011;11985;49.404;7.734;2022-08-19T07:29:50;18.27;;;13.30;;
23614;SDS011;11985;49.404;7.734;2022-08-19T07:31:54;16.15;;;13.38;;
23614;SDS011;11985;49.404;7.734;2022-08-19T07:33:59;17.33;;;14.07;;
23614;SDS011;11985;49.404;7.734;2022-08-19T07:36:00;18.60;;;14.38;;
23614;SDS011;11985;49.404;7.734;2022-08-19T07:38:02;20.60;;;15.32;;
23614;SDS011;11985;49.404;7.734;2022-08-19T07:42:09;18.75;;;13.52;;
23614;SDS011;11985;49.404;7.734;2022-08-19T07:44:12;19.75;;;15.13;;
23614;SDS011;11985;49.404;7.734;2022-08-19T07:46:15;18.75;;;13.30;;
23614;SDS011;11985;49.404;7.734;2022-08-19T07:48:16;15.13;;;12.55;;
23614;SDS011;11985;49.404;7.734;2022-08-19T07:50:19;18.85;;;12.43;;
23614;SDS011;11985;49.404;7.734;2022-08-19T07:52:21;18.17;;;14.80;;
23614;SDS011;11985;49.404;7.734;2022-08-19T07:54:25;14.75;;;12.35;;
23614;SDS011;11985;49.404;7.734;2022-08-19T07:56:30;17.60;;;13.98;;
23614;SDS011;11985;49.404;7.734;2022-08-19T07:58:32;18.58;;;13.00;;
23614;SDS011;11985;49.404;7.734;2022-08-19T08:00:35;14.68;;;13.10;;
23614;SDS011;11985;49.404;7.734;2022-08-19T08:02:37;21.77;;;16.15;;
23614;SDS011;11985;49.404;7.734;2022-08-19T08:04:39;20.05;;;17.33;;
23614;SDS011;11985;49.404;7.734;2022-08-19T08:06:58;23.02;;;15.40;;
23614;SDS011;11985;49.404;7.734;2022-08-19T08:09:18;19.48;;;15.30;;
23614;SDS011;11985;49.404;7.734;2022-08-19T08:11:22;17.27;;;12.57;;
23614;SDS011;11985;49.404;7.734;2022-08-19T08:13:25;16.65;;;14.00;;
23614;SDS011;11985;49.404;7.734;2022-08-19T08:15:27;16.13;;;12.43;;
23614;SDS011;11985;49.404;7.734;2022-08-19T08:19:31;15.07;;;12.95;;
23614;SDS011;11985;49.404;7.734;2022-08-19T08:21:33;15.57;;;13.77;;
23614;SDS011;11985;49.404;7.734;2022-08-19T08:23:35;19.52;;;13.60;;
23614;SDS011;11985;49.404;7.734;2022-08-19T08:25:36;20.03;;;13.37;;
23614;SDS011;11985;49.404;7.734;2022-08-19T08:27:37;24.55;;;17.90;;
23614;SDS011;11985;49.404;7.734;2022-08-19T08:29:42;18.30;;;14.30;;
23614;SDS011;11985;49.404;7.734;2022-08-19T08:31:44;19.95;;;15.10;;
23614;SDS011;11985;49.404;7.734;2022-08-19T08:33:46;23.45;;;16.95;;
23614;SDS011;11985;49.404;7.734;2022-08-19T08:35:48;20.67;;;15.65;;
23614;SDS011;11985;49.404;7.734;2022-08-19T08:37:51;19.70;;;15.38;;
23614;SDS011;11985;49.404;7.734;2022-08-19T08:39:55;17.67;;;14.35;;
23614;SDS011;11985;49.404;7.734;2022-08-19T08:44:02;19.50;;;15.40;;
23614;SDS011;11985;49.404;7.734;2022-08-19T08:46:09;17.50;;;13.48;;
23614;SDS011;11985;49.404;7.734;2022-08-19T08:48:17;18.67;;;13.00;;
23614;SDS011;11985;49.404;7.734;2022-08-19T08:50:24;14.52;;;12.98;;
23614;SDS011;11985;49.404;7.734;2022-08-19T08:52:31;19.48;;;14.85;;
23614;SDS011;11985;49.404;7.734;2022-08-19T08:54:37;18.52;;;14.90;;
23614;SDS011;11985;49.404;7.734;2022-08-19T08:56:41;23.17;;;14.70;;
23614;SDS011;11985;49.404;7.734;2022-08-19T08:58:46;16.83;;;15.02;;
23614;SDS011;11985;49.404;7.734;2022-08-19T09:00:55;18.33;;;15.43;;
23614;SDS011;11985;49.404;7.734;2022-08-19T09:02:58;25.05;;;15.38;;
23614;SDS011;11985;49.404;7.734;2022-08-19T09:05:02;19.17;;;14.55;;
23614;SDS011;11985;49.404;7.734;2022-08-19T09:07:14;23.95;;;11.57;;
23614;SDS011;11985;49.404;7.734;2022-08-19T09:09:26;15.52;;;13.20;;
23614;SDS011;11985;49.404;7.734;2022-08-19T09:11:39;17.00;;;13.63;;
23614;SDS011;11985;49.404;7.734;2022-08-19T09:13:49;16.10;;;13.23;;
23614;SDS011;11985;49.404;7.734;2022-08-19T09:16:04;14.75;;;12.18;;
23614;SDS011;11985;49.404;7.734;2022-08-19T09:18:09;15.77;;;10.38;;
23614;SDS011;11985;49.404;7.734;2022-08-19T09:20:14;17.70;;;11.68;;
23614;SDS011;11985;49.404;7.734;2022-08-19T09:22:18;13.45;;;9.18;;
23614;SDS011;11985;49.404;7.734;2022-08-19T09:24:21;13.80;;;9.93;;
23614;SDS011;11985;49.404;7.734;2022-08-19T09:26:23;9.50;;;8.48;;
23614;SDS011;11985;49.404;7.734;2022-08-19T09:28:25;7.05;;;5.93;;
23614;SDS011;11985;49.404;7.734;2022-08-19T09:30:28;6.43;;;5.82;;
23614;SDS011;11985;49.404;7.734;2022-08-19T09:32:31;9.93;;;6.22;;
23614;SDS011;11985;49.404;7.734;2022-08-19T09:36:36;6.43;;;4.05;;
23614;SDS011;11985;49.404;7.734;2022-08-19T09:38:39;5.78;;;4.43;;
23614;SDS011;11985;49.404;7.734;2022-08-19T09:40:41;5.05;;;4.55;;
23614;SDS011;11985;49.404;7.734;2022-08-19T09:44:46;7.15;;;4.75;;
23614;SDS011;11985;49.404;7.734;2022-08-19T09:46:48;7.57;;;5.93;;
23614;SDS011;11985;49.404;7.734;2022-08-19T09:48:51;5.80;;;5.20;;
23614;SDS011;11985;49.404;7.734;2022-08-19T09:50:54;8.32;;;5.80;;
23614;SDS011;11985;49.404;7.734;2022-08-19T09:52:56;7.90;;;6.45;;
23614;SDS011;11985;49.404;7.734;2022-08-19T09:54:58;7.10;;;6.40;;
23614;SDS011;11985;49.404;7.734;2022-08-19T09:57:00;8.05;;;6.38;;
23614;SDS011;11985;49.404;7.734;2022-08-19T09:59:02;8.52;;;7.03;;
23614;SDS011;11985;49.404;7.734;2022-08-19T10:01:05;10.77;;;6.00;;
23614;SDS011;11985;49.404;7.734;2022-08-19T10:03:08;7.18;;;6.20;;
23614;SDS011;11985;49.404;7.734;2022-08-19T10:05:11;7.55;;;5.40;;
23614;SDS011;11985;49.404;7.734;2022-08-19T10:07:31;8.68;;;5.93;;
23614;SDS011;11985;49.404;7.734;2022-08-19T10:09:33;7.63;;;5.50;;
23614;SDS011;11985;49.404;7.734;2022-08-19T10:11:35;6.95;;;5.65;;
23614;SDS011;11985;49.404;7.734;2022-08-19T10:13:37;7.22;;;5.88;;
23614;SDS011;11985;49.404;7.734;2022-08-19T10:15:39;5.43;;;4.93;;
23614;SDS011;11985;49.404;7.734;2022-08-19T10:17:41;6.95;;;5.60;;
23614;SDS011;11985;49.404;7.734;2022-08-19T10:19:46;5.82;;;4.57;;
23614;SDS011;11985;49.404;7.734;2022-08-19T10:21:49;7.10;;;4.40;;
23614;SDS011;11985;49.404;7.734;2022-08-19T10:23:53;7.25;;;4.80;;
23614;SDS011;11985;49.404;7.734;2022-08-19T10:25:59;6.38;;;5.00;;
23614;SDS011;11985;49.404;7.734;2022-08-19T10:28:02;5.40;;;4.90;;
23614;SDS011;11985;49.404;7.734;2022-08-19T10:30:06;5.78;;;4.82;;
23614;SDS011;11985;49.404;7.734;2022-08-19T10:32:09;7.05;;;4.63;;
23614;SDS011;11985;49.404;7.734;2022-08-19T10:34:12;6.03;;;4.43;;
23614;SDS011;11985;49.404;7.734;2022-08-19T10:36:15;5.55;;;4.60;;
23614;SDS011;11985;49.404;7.734;2022-08-19T10:38:19;6.35;;;4.63;;
23614;SDS011;11985;49.404;7.734;2022-08-19T10:40:23;5.57;;;4.40;;
23614;SDS011;11985;49.404;7.734;2022-08-19T10:42:24;6.38;;;3.92;;
23614;SDS011;11985;49.404;7.734;2022-08-19T10:44:26;4.95;;;4.25;;
23614;SDS011;11985;49.404;7.734;2022-08-19T10:46:28;5.60;;;4.15;;
23614;SDS011;11985;49.404;7.734;2022-08-19T10:48:31;5.82;;;4.38;;
23614;SDS011;11985;49.404;7.734;2022-08-19T10:50:34;5.07;;;4.35;;
23614;SDS011;11985;49.404;7.734;2022-08-19T10:52:54;4.57;;;3.67;;
23614;SDS011;11985;49.404;7.734;2022-08-19T10:54:56;4.63;;;4.22;;
23614;SDS011;11985;49.404;7.734;2022-08-19T10:57:16;4.72;;;4.22;;
23614;SDS011;11985;49.404;7.734;2022-08-19T10:59:18;8.52;;;4.35;;
23614;SDS011;11985;49.404;7.734;2022-08-19T11:01:22;5.80;;;4.15;;
23614;SDS011;11985;49.404;7.734;2022-08-19T11:03:25;4.07;;;3.78;;
23614;SDS011;11985;49.404;7.734;2022-08-19T11:05:27;4.35;;;3.60;;
23614;SDS011;11985;49.404;7.734;2022-08-19T11:07:30;5.72;;;4.00;;
23614;SDS011;11985;49.404;7.734;2022-08-19T11:09:36;6.35;;;3.88;;
23614;SDS011;11985;49.404;7.734;2022-08-19T11:11:39;3.70;;;3.40;;
23614;SDS011;11985;49.404;7.734;2022-08-19T11:13:42;4.43;;;3.42;;
23614;SDS011;11985;49.404;7.734;2022-08-19T11:15:46;3.95;;;3.60;;
23614;SDS011;11985;49.404;7.734;2022-08-19T11:17:47;4.25;;;3.40;;
23614;SDS011;11985;49.404;7.734;2022-08-19T11:19:49;4.63;;;3.53;;
23614;SDS011;11985;49.404;7.734;2022-08-19T11:21:51;4.32;;;3.50;;
23614;SDS011;11985;49.404;7.734;2022-08-19T11:23:55;5.13;;;3.88;;
23614;SDS011;11985;49.404;7.734;2022-08-19T11:25:58;5.70;;;3.92;;
23614;SDS011;11985;49.404;7.734;2022-08-19T11:28:01;4.72;;;3.72;;
23614;SDS011;11985;49.404;7.734;2022-08-19T11:30:05;4.05;;;3.38;;
23614;SDS011;11985;49.404;7.734;2022-08-19T11:32:08;4.85;;;3.45;;
23614;SDS011;11985;49.404;7.734;2022-08-19T11:34:12;3.42;;;3.13;;
23614;SDS011;11985;49.404;7.734;2022-08-19T11:36:22;5.95;;;3.30;;
23614;SDS011;11985;49.404;7.734;2022-08-19T11:38:44;4.00;;;3.00;;
23614;SDS011;11985;49.404;7.734;2022-08-19T11:40:53;4.57;;;3.20;;
23614;SDS011;11985;49.404;7.734;2022-08-19T11:42:56;5.30;;;3.17;;
23614;SDS011;11985;49.404;7.734;2022-08-19T11:44:58;3.53;;;3.10;;
23614;SDS011;11985;49.404;7.734;2022-08-19T11:47:01;4.25;;;2.70;;
23614;SDS011;11985;49.404;7.734;2022-08-19T11:49:03;4.25;;;3.28;;
23614;SDS011;11985;49.404;7.734;2022-08-19T11:51:08;6.85;;;3.20;;
23614;SDS011;11985;49.404;7.734;2022-08-19T11:53:11;7.90;;;3.33;;
23614;SDS011;11985;49.404;7.734;2022-08-19T11:55:13;3.28;;;2.97;;
23614;SDS011;11985;49.404;7.734;2022-08-19T11:57:17;3.25;;;2.95;;
23614;SDS011;11985;49.404;7.734;2022-08-19T11:59:19;4.25;;;3.10;;
23614;SDS011;11985;49.404;7.734;2022-08-19T12:01:22;4.63;;;3.40;;
23614;SDS011;11985;49.404;7.734;2022-08-19T12:03:26;5.45;;;3.25;;
23614;SDS011;11985;49.404;7.734;2022-08-19T12:05:28;4.47;;;3.15;;
23614;SDS011;11985;49.404;7.734;2022-08-19T12:07:31;3.90;;;3.33;;
23614;SDS011;11985;49.404;7.734;2022-08-19T12:09:35;3.85;;;3.22;;
23614;SDS011;11985;49.404;7.734;2022-08-19T12:11:36;4.18;;;2.78;;
23614;SDS011;11985;49.404;7.734;2022-08-19T12:13:39;3.92;;;2.97;;
23614;SDS011;11985;49.404;7.734;2022-08-19T12:15:41;7.47;;;3.17;;
23614;SDS011;11985;49.404;7.734;2022-08-19T12:17:45;3.38;;;3.00;;
23614;SDS011;11985;49.404;7.734;2022-08-19T12:19:48;4.25;;;3.10;;
23614;SDS011;11985;49.404;7.734;2022-08-19T12:21:50;4.28;;;3.08;;
23614;SDS011;11985;49.404;7.734;2022-08-19T12:23:53;4.65;;;2.72;;
23614;SDS011;11985;49.404;7.734;2022-08-19T12:25:55;4.55;;;2.75;;
23614;SDS011;11985;49.404;7.734;2022-08-19T12:27:57;5.20;;;3.15;;
23614;SDS011;11985;49.404;7.734;2022-08-19T12:29:59;4.97;;;3.08;;
23614;SDS011;11985;49.404;7.734;2022-08-19T12:32:01;5.15;;;3.10;;
23614;SDS011;11985;49.404;7.734;2022-08-19T12:34:04;6.50;;;2.85;;
23614;SDS011;11985;49.404;7.734;2022-08-19T12:36:08;4.35;;;3.13;;
23614;SDS011;11985;49.404;7.734;2022-08-19T12:38:14;4.78;;;3.45;;
23614;SDS011;11985;49.404;7.734;2022-08-19T12:40:16;5.35;;;3.30;;
23614;SDS011;11985;49.404;7.734;2022-08-19T12:42:19;3.40;;;3.10;;